sensor_id;sensor_type;location;lat;lon;timestamp;P1;durP1;ratioP1;P2;durP2;ratioP2
39454;SDS011;25155;41.890;23.446;2024-02-26T00:01:14;4.95;;;3.40;;
39454;SDS011;25155;41.890;23.446;2024-02-26T00:03:42;5.00;;;3.50;;
39454;SDS011;25155;41.890;23.446;2024-02-26T00:06:11;6.55;;;3.42;;
39454;SDS011;25155;41.890;23.446;2024-02-26T00:08:38;6.40;;;3.90;;
39454;SDS011;25155;41.890;23.446;2024-02-26T00:11:05;5.68;;;4.00;;
39454;SDS011;25155;41.890;23.446;2024-02-26T00:13:32;5.28;;;3.85;;
39454;SDS011;25155;41.890;23.446;2024-02-26T00:16:00;4.60;;;3.35;;
39454;SDS011;25155;41.890;23.446;2024-02-26T00:18:27;5.32;;;3.78;;
39454;SDS011;25155;41.890;23.446;2024-02-26T00:20:55;6.88;;;4.07;;
39454;SDS011;25155;41.890;23.446;2024-02-26T00:23:23;4.90;;;3.20;;
39454;SDS011;25155;41.890;23.446;2024-02-26T00:25:50;5.07;;;3.38;;
39454;SDS011;25155;41.890;23.446;2024-02-26T00:28:17;5.70;;;3.38;;
39454;SDS011;25155;41.890;23.446;2024-02-26T00:30:45;5.20;;;3.45;;
39454;SDS011;25155;41.890;23.446;2024-02-26T00:33:12;4.68;;;3.15;;
39454;SDS011;25155;41.890;23.446;2024-02-26T00:35:41;5.82;;;3.38;;
39454;SDS011;25155;41.890;23.446;2024-02-26T00:38:09;6.50;;;4.57;;
39454;SDS011;25155;41.890;23.446;2024-02-26T00:40:36;7.15;;;4.93;;
39454;SDS011;25155;41.890;23.446;2024-02-26T00:43:05;8.85;;;5.55;;
39454;SDS011;25155;41.890;23.446;2024-02-26T00:45:32;7.05;;;5.00;;
39454;SDS011;25155;41.890;23.446;2024-02-26T00:48:00;6.05;;;4.20;;
39454;SDS011;25155;41.890;23.446;2024-02-26T00:50:30;5.05;;;3.70;;
39454;SDS011;25155;41.890;23.446;2024-02-26T00:52:58;6.68;;;4.13;;
39454;SDS011;25155;41.890;23.446;2024-02-26T00:55:26;7.03;;;3.85;;
39454;SDS011;25155;41.890;23.446;2024-02-26T00:57:55;4.82;;;3.30;;
39454;SDS011;25155;41.890;23.446;2024-02-26T01:00:22;5.57;;;3.67;;
39454;SDS011;25155;41.890;23.446;2024-02-26T01:02:49;5.82;;;3.08;;
39454;SDS011;25155;41.890;23.446;2024-02-26T01:05:17;4.45;;;3.22;;
39454;SDS011;25155;41.890;23.446;2024-02-26T01:07:44;7.15;;;3.30;;
39454;SDS011;25155;41.890;23.446;2024-02-26T01:10:11;4.80;;;3.10;;
39454;SDS011;25155;41.890;23.446;2024-02-26T01:12:40;5.80;;;3.00;;
39454;SDS011;25155;41.890;23.446;2024-02-26T01:15:07;4.80;;;3.30;;
39454;SDS011;25155;41.890;23.446;2024-02-26T01:17:35;4.88;;;3.20;;
39454;SDS011;25155;41.890;23.446;2024-02-26T01:20:02;4.70;;;3.10;;
39454;SDS011;25155;41.890;23.446;2024-02-26T01:22:29;5.80;;;3.13;;
39454;SDS011;25155;41.890;23.446;2024-02-26T01:24:57;5.70;;;3.60;;
39454;SDS011;25155;41.890;23.446;2024-02-26T01:27:24;6.15;;;3.88;;
39454;SDS011;25155;41.890;23.446;2024-02-26T01:29:54;5.13;;;3.47;;
39454;SDS011;25155;41.890;23.446;2024-02-26T01:32:21;5.55;;;3.42;;
39454;SDS011;25155;41.890;23.446;2024-02-26T01:34:48;6.25;;;3.55;;
39454;SDS011;25155;41.890;23.446;2024-02-26T01:37:15;6.97;;;4.10;;
39454;SDS011;25155;41.890;23.446;2024-02-26T01:39:43;7.35;;;4.20;;
39454;SDS011;25155;41.890;23.446;2024-02-26T01:42:10;7.90;;;4.70;;
39454;SDS011;25155;41.890;23.446;2024-02-26T01:44:37;7.65;;;4.55;;
39454;SDS011;25155;41.890;23.446;2024-02-26T01:47:06;6.60;;;4.10;;
39454;SDS011;25155;41.890;23.446;2024-02-26T01:49:37;7.15;;;4.45;;
39454;SDS011;25155;41.890;23.446;2024-02-26T01:52:06;6.13;;;4.00;;
39454;SDS011;25155;41.890;23.446;2024-02-26T01:54:36;5.88;;;4.05;;
39454;SDS011;25155;41.890;23.446;2024-02-26T01:57:05;6.28;;;3.78;;
39454;SDS011;25155;41.890;23.446;2024-02-26T01:59:34;6.30;;;4.03;;
39454;SDS011;25155;41.890;23.446;2024-02-26T02:02:03;4.78;;;3.25;;
39454;SDS011;25155;41.890;23.446;2024-02-26T02:04:34;5.90;;;3.42;;
39454;SDS011;25155;41.890;23.446;2024-02-26T02:07:02;5.30;;;3.33;;
39454;SDS011;25155;41.890;23.446;2024-02-26T02:09:30;5.13;;;3.33;;
39454;SDS011;25155;41.890;23.446;2024-02-26T02:11:58;4.95;;;3.10;;
39454;SDS011;25155;41.890;23.446;2024-02-26T02:14:25;4.85;;;3.20;;
39454;SDS011;25155;41.890;23.446;2024-02-26T02:16:52;4.93;;;3.35;;
39454;SDS011;25155;41.890;23.446;2024-02-26T02:19:21;4.72;;;3.08;;
39454;SDS011;25155;41.890;23.446;2024-02-26T02:21:50;4.75;;;2.90;;
39454;SDS011;25155;41.890;23.446;2024-02-26T02:24:17;5.18;;;3.05;;
39454;SDS011;25155;41.890;23.446;2024-02-26T02:26:44;5.05;;;2.75;;
39454;SDS011;25155;41.890;23.446;2024-02-26T02:29:12;4.43;;;2.75;;
39454;SDS011;25155;41.890;23.446;2024-02-26T02:31:40;5.40;;;2.80;;
39454;SDS011;25155;41.890;23.446;2024-02-26T02:34:09;3.40;;;2.10;;
39454;SDS011;25155;41.890;23.446;2024-02-26T02:36:48;6.50;;;2.65;;
39454;SDS011;25155;41.890;23.446;2024-02-26T02:41:46;3.63;;;2.40;;
39454;SDS011;25155;41.890;23.446;2024-02-26T02:44:13;3.90;;;2.30;;
39454;SDS011;25155;41.890;23.446;2024-02-26T02:46:40;3.08;;;1.98;;
39454;SDS011;25155;41.890;23.446;2024-02-26T02:49:08;3.95;;;2.15;;
39454;SDS011;25155;41.890;23.446;2024-02-26T02:51:36;4.70;;;2.60;;
39454;SDS011;25155;41.890;23.446;2024-02-26T02:54:05;2.65;;;1.90;;
39454;SDS011;25155;41.890;23.446;2024-02-26T02:56:32;4.55;;;2.78;;
39454;SDS011;25155;41.890;23.446;2024-02-26T02:59:01;3.63;;;2.33;;
39454;SDS011;25155;41.890;23.446;2024-02-26T03:01:29;3.35;;;2.10;;
39454;SDS011;25155;41.890;23.446;2024-02-26T03:03:56;3.22;;;2.20;;
39454;SDS011;25155;41.890;23.446;2024-02-26T03:06:23;4.43;;;2.97;;
39454;SDS011;25155;41.890;23.446;2024-02-26T03:08:53;4.82;;;2.40;;
39454;SDS011;25155;41.890;23.446;2024-02-26T03:11:21;2.33;;;1.77;;
39454;SDS011;25155;41.890;23.446;2024-02-26T03:13:48;3.58;;;1.98;;
39454;SDS011;25155;41.890;23.446;2024-02-26T03:16:16;2.72;;;2.00;;
39454;SDS011;25155;41.890;23.446;2024-02-26T03:18:44;4.53;;;2.47;;
39454;SDS011;25155;41.890;23.446;2024-02-26T03:21:11;5.30;;;2.80;;
39454;SDS011;25155;41.890;23.446;2024-02-26T03:23:38;4.88;;;3.20;;
39454;SDS011;25155;41.890;23.446;2024-02-26T03:26:06;4.88;;;3.10;;
39454;SDS011;25155;41.890;23.446;2024-02-26T03:28:35;3.72;;;2.33;;
39454;SDS011;25155;41.890;23.446;2024-02-26T03:31:03;5.95;;;3.33;;
39454;SDS011;25155;41.890;23.446;2024-02-26T03:33:31;4.82;;;2.88;;
39454;SDS011;25155;41.890;23.446;2024-02-26T03:35:58;4.55;;;2.90;;
39454;SDS011;25155;41.890;23.446;2024-02-26T03:38:25;3.38;;;2.40;;
39454;SDS011;25155;41.890;23.446;2024-02-26T03:40:53;4.00;;;2.40;;
39454;SDS011;25155;41.890;23.446;2024-02-26T03:43:21;4.45;;;2.72;;
39454;SDS011;25155;41.890;23.446;2024-02-26T03:45:49;4.75;;;2.65;;
39454;SDS011;25155;41.890;23.446;2024-02-26T03:48:17;2.78;;;2.00;;
39454;SDS011;25155;41.890;23.446;2024-02-26T03:50:44;3.00;;;2.10;;
39454;SDS011;25155;41.890;23.446;2024-02-26T03:53:11;4.68;;;2.92;;
39454;SDS011;25155;41.890;23.446;2024-02-26T03:55:39;4.20;;;2.50;;
39454;SDS011;25155;41.890;23.446;2024-02-26T03:58:07;3.60;;;2.40;;
39454;SDS011;25155;41.890;23.446;2024-02-26T04:00:35;4.45;;;2.85;;
39454;SDS011;25155;41.890;23.446;2024-02-26T04:03:03;3.70;;;2.50;;
39454;SDS011;25155;41.890;23.446;2024-02-26T04:05:31;4.45;;;2.92;;
39454;SDS011;25155;41.890;23.446;2024-02-26T04:07:58;4.35;;;2.95;;
39454;SDS011;25155;41.890;23.446;2024-02-26T04:10:25;5.53;;;2.85;;
39454;SDS011;25155;41.890;23.446;2024-02-26T04:12:52;4.50;;;2.50;;
39454;SDS011;25155;41.890;23.446;2024-02-26T04:15:20;5.32;;;3.20;;
39454;SDS011;25155;41.890;23.446;2024-02-26T04:17:47;4.13;;;2.58;;
39454;SDS011;25155;41.890;23.446;2024-02-26T04:20:15;6.05;;;2.95;;
39454;SDS011;25155;41.890;23.446;2024-02-26T04:22:43;4.50;;;2.72;;
39454;SDS011;25155;41.890;23.446;2024-02-26T04:25:11;4.72;;;2.70;;
39454;SDS011;25155;41.890;23.446;2024-02-26T04:27:38;4.32;;;2.60;;
39454;SDS011;25155;41.890;23.446;2024-02-26T04:30:06;4.82;;;2.92;;
39454;SDS011;25155;41.890;23.446;2024-02-26T04:32:33;4.40;;;2.78;;
39454;SDS011;25155;41.890;23.446;2024-02-26T04:35:01;4.07;;;2.70;;
39454;SDS011;25155;41.890;23.446;2024-02-26T04:37:31;5.07;;;3.20;;
39454;SDS011;25155;41.890;23.446;2024-02-26T04:39:58;4.30;;;2.80;;
39454;SDS011;25155;41.890;23.446;2024-02-26T04:42:25;4.78;;;3.03;;
39454;SDS011;25155;41.890;23.446;2024-02-26T04:44:53;3.85;;;2.50;;
39454;SDS011;25155;41.890;23.446;2024-02-26T04:47:21;4.78;;;2.88;;
39454;SDS011;25155;41.890;23.446;2024-02-26T04:49:49;4.88;;;2.80;;
39454;SDS011;25155;41.890;23.446;2024-02-26T04:52:16;4.63;;;2.47;;
39454;SDS011;25155;41.890;23.446;2024-02-26T04:54:45;3.90;;;2.35;;
39454;SDS011;25155;41.890;23.446;2024-02-26T04:57:12;4.45;;;3.00;;
39454;SDS011;25155;41.890;23.446;2024-02-26T04:59:39;5.35;;;3.00;;
39454;SDS011;25155;41.890;23.446;2024-02-26T05:02:08;3.90;;;2.60;;
39454;SDS011;25155;41.890;23.446;2024-02-26T05:04:35;4.72;;;2.85;;
39454;SDS011;25155;41.890;23.446;2024-02-26T05:07:02;4.47;;;3.00;;
39454;SDS011;25155;41.890;23.446;2024-02-26T05:09:31;4.35;;;2.70;;
39454;SDS011;25155;41.890;23.446;2024-02-26T05:12:00;4.30;;;2.67;;
39454;SDS011;25155;41.890;23.446;2024-02-26T05:14:27;4.60;;;2.83;;
39454;SDS011;25155;41.890;23.446;2024-02-26T05:16:54;5.30;;;3.55;;
39454;SDS011;25155;41.890;23.446;2024-02-26T05:19:22;13.80;;;8.25;;
39454;SDS011;25155;41.890;23.446;2024-02-26T05:21:50;11.10;;;7.22;;
39454;SDS011;25155;41.890;23.446;2024-02-26T05:24:17;11.00;;;6.80;;
39454;SDS011;25155;41.890;23.446;2024-02-26T05:26:48;10.70;;;6.50;;
39454;SDS011;25155;41.890;23.446;2024-02-26T05:29:16;8.30;;;5.75;;
39454;SDS011;25155;41.890;23.446;2024-02-26T05:31:43;7.55;;;5.05;;
39454;SDS011;25155;41.890;23.446;2024-02-26T05:34:11;5.82;;;4.22;;
39454;SDS011;25155;41.890;23.446;2024-02-26T05:36:38;5.18;;;3.30;;
39454;SDS011;25155;41.890;23.446;2024-02-26T05:39:05;6.15;;;3.22;;
39454;SDS011;25155;41.890;23.446;2024-02-26T05:41:32;5.05;;;3.20;;
39454;SDS011;25155;41.890;23.446;2024-02-26T05:43:59;4.25;;;2.90;;
39454;SDS011;25155;41.890;23.446;2024-02-26T05:46:28;4.07;;;2.85;;
39454;SDS011;25155;41.890;23.446;2024-02-26T05:48:55;3.58;;;2.20;;
39454;SDS011;25155;41.890;23.446;2024-02-26T05:51:22;2.75;;;2.03;;
39454;SDS011;25155;41.890;23.446;2024-02-26T05:53:49;3.25;;;1.92;;
39454;SDS011;25155;41.890;23.446;2024-02-26T05:56:19;3.17;;;2.20;;
39454;SDS011;25155;41.890;23.446;2024-02-26T05:58:47;3.40;;;2.20;;
39454;SDS011;25155;41.890;23.446;2024-02-26T06:01:15;3.92;;;2.10;;
39454;SDS011;25155;41.890;23.446;2024-02-26T06:03:44;3.50;;;2.03;;
39454;SDS011;25155;41.890;23.446;2024-02-26T06:06:11;3.80;;;2.50;;
39454;SDS011;25155;41.890;23.446;2024-02-26T06:08:40;3.47;;;2.13;;
39454;SDS011;25155;41.890;23.446;2024-02-26T06:11:07;3.10;;;2.17;;
39454;SDS011;25155;41.890;23.446;2024-02-26T06:13:35;2.58;;;1.80;;
39454;SDS011;25155;41.890;23.446;2024-02-26T06:16:02;3.28;;;2.10;;
39454;SDS011;25155;41.890;23.446;2024-02-26T06:18:30;4.50;;;3.00;;
39454;SDS011;25155;41.890;23.446;2024-02-26T06:20:58;20.33;;;12.95;;
39454;SDS011;25155;41.890;23.446;2024-02-26T06:23:25;24.35;;;15.48;;
39454;SDS011;25155;41.890;23.446;2024-02-26T06:25:53;14.23;;;10.57;;
39454;SDS011;25155;41.890;23.446;2024-02-26T06:28:20;10.68;;;7.85;;
39454;SDS011;25155;41.890;23.446;2024-02-26T06:30:47;8.15;;;5.80;;
39454;SDS011;25155;41.890;23.446;2024-02-26T06:33:15;7.53;;;5.70;;
39454;SDS011;25155;41.890;23.446;2024-02-26T06:35:43;6.28;;;3.83;;
39454;SDS011;25155;41.890;23.446;2024-02-26T06:38:11;4.80;;;3.10;;
39454;SDS011;25155;41.890;23.446;2024-02-26T06:40:40;6.57;;;4.65;;
39454;SDS011;25155;41.890;23.446;2024-02-26T06:43:07;11.85;;;7.43;;
39454;SDS011;25155;41.890;23.446;2024-02-26T06:45:35;10.20;;;7.35;;
39454;SDS011;25155;41.890;23.446;2024-02-26T06:48:02;11.95;;;8.55;;
39454;SDS011;25155;41.890;23.446;2024-02-26T06:50:30;8.88;;;6.35;;
39454;SDS011;25155;41.890;23.446;2024-02-26T06:52:57;8.75;;;5.40;;
39454;SDS011;25155;41.890;23.446;2024-02-26T06:55:25;7.68;;;5.20;;
39454;SDS011;25155;41.890;23.446;2024-02-26T06:57:52;6.38;;;4.30;;
39454;SDS011;25155;41.890;23.446;2024-02-26T07:00:19;5.38;;;3.80;;
39454;SDS011;25155;41.890;23.446;2024-02-26T07:02:47;5.18;;;3.50;;
39454;SDS011;25155;41.890;23.446;2024-02-26T07:05:14;4.28;;;2.90;;
39454;SDS011;25155;41.890;23.446;2024-02-26T07:07:41;4.05;;;2.67;;
39454;SDS011;25155;41.890;23.446;2024-02-26T07:10:09;7.50;;;4.57;;
39454;SDS011;25155;41.890;23.446;2024-02-26T07:12:40;8.82;;;6.28;;
39454;SDS011;25155;41.890;23.446;2024-02-26T07:15:07;8.75;;;6.15;;
39454;SDS011;25155;41.890;23.446;2024-02-26T07:17:35;8.75;;;6.47;;
39454;SDS011;25155;41.890;23.446;2024-02-26T07:20:03;10.40;;;6.53;;
39454;SDS011;25155;41.890;23.446;2024-02-26T07:22:31;10.55;;;7.30;;
39454;SDS011;25155;41.890;23.446;2024-02-26T07:24:59;12.55;;;8.57;;
39454;SDS011;25155;41.890;23.446;2024-02-26T07:27:26;11.50;;;8.60;;
39454;SDS011;25155;41.890;23.446;2024-02-26T07:29:54;11.98;;;8.35;;
39454;SDS011;25155;41.890;23.446;2024-02-26T07:32:21;10.88;;;8.10;;
39454;SDS011;25155;41.890;23.446;2024-02-26T07:34:49;12.18;;;9.27;;
39454;SDS011;25155;41.890;23.446;2024-02-26T07:37:16;10.55;;;7.18;;
39454;SDS011;25155;41.890;23.446;2024-02-26T07:39:43;8.90;;;6.65;;
39454;SDS011;25155;41.890;23.446;2024-02-26T07:42:10;9.32;;;6.32;;
39454;SDS011;25155;41.890;23.446;2024-02-26T07:44:38;10.95;;;7.55;;
39454;SDS011;25155;41.890;23.446;2024-02-26T07:47:09;38.80;;;13.73;;
39454;SDS011;25155;41.890;23.446;2024-02-26T07:49:36;15.10;;;8.50;;
39454;SDS011;25155;41.890;23.446;2024-02-26T07:52:05;12.52;;;7.72;;
39454;SDS011;25155;41.890;23.446;2024-02-26T07:54:33;8.00;;;6.25;;
39454;SDS011;25155;41.890;23.446;2024-02-26T07:57:00;7.88;;;5.32;;
39454;SDS011;25155;41.890;23.446;2024-02-26T07:59:31;6.72;;;4.90;;
39454;SDS011;25155;41.890;23.446;2024-02-26T08:01:58;8.07;;;6.05;;
39454;SDS011;25155;41.890;23.446;2024-02-26T08:04:30;7.47;;;5.25;;
39454;SDS011;25155;41.890;23.446;2024-02-26T08:06:57;7.35;;;5.22;;
39454;SDS011;25155;41.890;23.446;2024-02-26T08:09:24;7.30;;;5.38;;
39454;SDS011;25155;41.890;23.446;2024-02-26T08:11:51;7.35;;;5.07;;
39454;SDS011;25155;41.890;23.446;2024-02-26T08:14:18;8.60;;;4.60;;
39454;SDS011;25155;41.890;23.446;2024-02-26T08:16:45;8.63;;;5.13;;
39454;SDS011;25155;41.890;23.446;2024-02-26T08:19:12;10.32;;;6.40;;
39454;SDS011;25155;41.890;23.446;2024-02-26T08:21:42;8.70;;;5.45;;
39454;SDS011;25155;41.890;23.446;2024-02-26T08:24:09;11.25;;;8.60;;
39454;SDS011;25155;41.890;23.446;2024-02-26T08:26:36;15.00;;;10.50;;
39454;SDS011;25155;41.890;23.446;2024-02-26T08:29:04;25.45;;;18.98;;
39454;SDS011;25155;41.890;23.446;2024-02-26T08:31:31;27.40;;;20.80;;
39454;SDS011;25155;41.890;23.446;2024-02-26T08:33:59;25.77;;;19.65;;
39454;SDS011;25155;41.890;23.446;2024-02-26T08:36:26;21.05;;;16.67;;
39454;SDS011;25155;41.890;23.446;2024-02-26T08:38:55;22.42;;;16.55;;
39454;SDS011;25155;41.890;23.446;2024-02-26T08:41:22;21.40;;;15.93;;
39454;SDS011;25155;41.890;23.446;2024-02-26T08:43:49;16.92;;;12.70;;
39454;SDS011;25155;41.890;23.446;2024-02-26T08:46:17;22.17;;;16.42;;
39454;SDS011;25155;41.890;23.446;2024-02-26T08:48:44;19.30;;;14.73;;
39454;SDS011;25155;41.890;23.446;2024-02-26T08:51:11;20.35;;;15.32;;
39454;SDS011;25155;41.890;23.446;2024-02-26T08:53:39;20.33;;;15.35;;
39454;SDS011;25155;41.890;23.446;2024-02-26T08:56:08;19.08;;;13.38;;
39454;SDS011;25155;41.890;23.446;2024-02-26T08:58:36;19.77;;;14.18;;
39454;SDS011;25155;41.890;23.446;2024-02-26T09:01:03;18.92;;;14.63;;
39454;SDS011;25155;41.890;23.446;2024-02-26T09:03:30;17.95;;;13.07;;
39454;SDS011;25155;41.890;23.446;2024-02-26T09:05:57;19.35;;;14.70;;
39454;SDS011;25155;41.890;23.446;2024-02-26T09:08:25;23.23;;;16.77;;
39454;SDS011;25155;41.890;23.446;2024-02-26T09:10:52;22.10;;;16.13;;
39454;SDS011;25155;41.890;23.446;2024-02-26T09:13:20;17.05;;;12.85;;
39454;SDS011;25155;41.890;23.446;2024-02-26T09:15:47;16.92;;;12.23;;
39454;SDS011;25155;41.890;23.446;2024-02-26T09:18:15;12.77;;;9.43;;
39454;SDS011;25155;41.890;23.446;2024-02-26T09:20:42;13.45;;;9.57;;
39454;SDS011;25155;41.890;23.446;2024-02-26T09:23:09;17.15;;;12.43;;
39454;SDS011;25155;41.890;23.446;2024-02-26T09:25:36;14.55;;;11.10;;
39454;SDS011;25155;41.890;23.446;2024-02-26T09:28:04;16.92;;;13.38;;
39454;SDS011;25155;41.890;23.446;2024-02-26T09:30:32;15.20;;;11.60;;
39454;SDS011;25155;41.890;23.446;2024-02-26T09:32:59;13.75;;;10.65;;
39454;SDS011;25155;41.890;23.446;2024-02-26T09:35:28;16.30;;;12.65;;
39454;SDS011;25155;41.890;23.446;2024-02-26T09:37:55;14.77;;;10.77;;
39454;SDS011;25155;41.890;23.446;2024-02-26T09:40:22;12.57;;;9.32;;
39454;SDS011;25155;41.890;23.446;2024-02-26T09:42:50;17.17;;;10.32;;
39454;SDS011;25155;41.890;23.446;2024-02-26T09:45:25;11.52;;;8.48;;
39454;SDS011;25155;41.890;23.446;2024-02-26T09:47:55;17.42;;;10.48;;
39454;SDS011;25155;41.890;23.446;2024-02-26T09:50:23;15.55;;;10.52;;
39454;SDS011;25155;41.890;23.446;2024-02-26T09:52:51;14.23;;;8.98;;
39454;SDS011;25155;41.890;23.446;2024-02-26T09:55:19;11.20;;;7.63;;
39454;SDS011;25155;41.890;23.446;2024-02-26T09:57:46;12.20;;;8.05;;
39454;SDS011;25155;41.890;23.446;2024-02-26T10:00:18;9.23;;;6.63;;
39454;SDS011;25155;41.890;23.446;2024-02-26T10:02:48;10.45;;;7.20;;
39454;SDS011;25155;41.890;23.446;2024-02-26T10:05:17;8.75;;;5.70;;
39454;SDS011;25155;41.890;23.446;2024-02-26T10:07:45;9.48;;;7.13;;
39454;SDS011;25155;41.890;23.446;2024-02-26T10:10:12;8.57;;;6.40;;
39454;SDS011;25155;41.890;23.446;2024-02-26T10:12:40;8.77;;;5.97;;
39454;SDS011;25155;41.890;23.446;2024-02-26T10:15:08;8.20;;;5.47;;
39454;SDS011;25155;41.890;23.446;2024-02-26T10:17:35;6.70;;;4.40;;
39454;SDS011;25155;41.890;23.446;2024-02-26T10:20:14;6.35;;;4.35;;
39454;SDS011;25155;41.890;23.446;2024-02-26T10:22:44;5.93;;;3.95;;
39454;SDS011;25155;41.890;23.446;2024-02-26T10:25:11;5.57;;;3.78;;
39454;SDS011;25155;41.890;23.446;2024-02-26T10:27:40;5.75;;;3.88;;
39454;SDS011;25155;41.890;23.446;2024-02-26T10:30:15;4.40;;;3.00;;
39454;SDS011;25155;41.890;23.446;2024-02-26T10:32:44;6.38;;;3.55;;
39454;SDS011;25155;41.890;23.446;2024-02-26T10:35:12;5.18;;;3.40;;
39454;SDS011;25155;41.890;23.446;2024-02-26T10:37:39;5.88;;;3.47;;
39454;SDS011;25155;41.890;23.446;2024-02-26T10:40:11;5.07;;;3.08;;
39454;SDS011;25155;41.890;23.446;2024-02-26T10:42:39;5.40;;;3.45;;
39454;SDS011;25155;41.890;23.446;2024-02-26T10:45:07;6.30;;;3.13;;
39454;SDS011;25155;41.890;23.446;2024-02-26T10:47:35;4.60;;;3.20;;
39454;SDS011;25155;41.890;23.446;2024-02-26T10:50:03;4.20;;;2.80;;
39454;SDS011;25155;41.890;23.446;2024-02-26T10:52:33;5.20;;;2.92;;
39454;SDS011;25155;41.890;23.446;2024-02-26T10:55:01;8.70;;;3.30;;
39454;SDS011;25155;41.890;23.446;2024-02-26T10:57:32;5.97;;;2.70;;
39454;SDS011;25155;41.890;23.446;2024-02-26T11:00:03;6.10;;;3.08;;
39454;SDS011;25155;41.890;23.446;2024-02-26T11:02:32;4.88;;;3.00;;
39454;SDS011;25155;41.890;23.446;2024-02-26T11:05:00;5.47;;;3.40;;
39454;SDS011;25155;41.890;23.446;2024-02-26T11:07:30;5.93;;;3.38;;
39454;SDS011;25155;41.890;23.446;2024-02-26T11:09:58;5.38;;;2.88;;
39454;SDS011;25155;41.890;23.446;2024-02-26T11:12:28;6.75;;;3.35;;
39454;SDS011;25155;41.890;23.446;2024-02-26T11:14:58;7.45;;;3.47;;
39454;SDS011;25155;41.890;23.446;2024-02-26T11:17:27;5.60;;;3.60;;
39454;SDS011;25155;41.890;23.446;2024-02-26T11:19:57;5.57;;;3.53;;
39454;SDS011;25155;41.890;23.446;2024-02-26T11:22:24;7.45;;;4.00;;
39454;SDS011;25155;41.890;23.446;2024-02-26T11:24:52;5.47;;;3.50;;
39454;SDS011;25155;41.890;23.446;2024-02-26T11:27:23;5.47;;;3.38;;
39454;SDS011;25155;41.890;23.446;2024-02-26T11:29:55;5.25;;;3.38;;
39454;SDS011;25155;41.890;23.446;2024-02-26T11:32:26;8.10;;;3.58;;
39454;SDS011;25155;41.890;23.446;2024-02-26T11:34:55;6.68;;;3.47;;
39454;SDS011;25155;41.890;23.446;2024-02-26T11:37:23;4.90;;;3.00;;
39454;SDS011;25155;41.890;23.446;2024-02-26T11:39:51;5.30;;;3.28;;
39454;SDS011;25155;41.890;23.446;2024-02-26T11:42:23;4.90;;;3.05;;
39454;SDS011;25155;41.890;23.446;2024-02-26T11:44:51;7.32;;;3.60;;
39454;SDS011;25155;41.890;23.446;2024-02-26T11:47:21;9.60;;;4.40;;
39454;SDS011;25155;41.890;23.446;2024-02-26T11:49:49;6.30;;;3.35;;
39454;SDS011;25155;41.890;23.446;2024-02-26T11:52:17;5.97;;;3.30;;
39454;SDS011;25155;41.890;23.446;2024-02-26T11:54:45;6.25;;;3.80;;
39454;SDS011;25155;41.890;23.446;2024-02-26T11:57:23;5.93;;;3.33;;
39454;SDS011;25155;41.890;23.446;2024-02-26T11:59:54;11.95;;;4.65;;
39454;SDS011;25155;41.890;23.446;2024-02-26T12:05:17;6.13;;;3.08;;
39454;SDS011;25155;41.890;23.446;2024-02-26T12:07:49;12.80;;;4.50;;
39454;SDS011;25155;41.890;23.446;2024-02-26T12:10:23;6.05;;;3.28;;
39454;SDS011;25155;41.890;23.446;2024-02-26T12:12:54;7.25;;;2.97;;
39454;SDS011;25155;41.890;23.446;2024-02-26T12:15:31;7.35;;;3.28;;
39454;SDS011;25155;41.890;23.446;2024-02-26T12:18:03;9.90;;;3.45;;
39454;SDS011;25155;41.890;23.446;2024-02-26T12:20:32;27.38;;;5.15;;
39454;SDS011;25155;41.890;23.446;2024-02-26T12:23:00;7.45;;;3.25;;
39454;SDS011;25155;41.890;23.446;2024-02-26T12:25:29;8.57;;;3.63;;
39454;SDS011;25155;41.890;23.446;2024-02-26T12:27:58;5.20;;;3.13;;
39454;SDS011;25155;41.890;23.446;2024-02-26T12:30:26;7.25;;;4.45;;
39454;SDS011;25155;41.890;23.446;2024-02-26T12:32:55;5.78;;;2.95;;
39454;SDS011;25155;41.890;23.446;2024-02-26T12:35:26;7.07;;;3.20;;
39454;SDS011;25155;41.890;23.446;2024-02-26T12:37:53;8.20;;;3.00;;
39454;SDS011;25155;41.890;23.446;2024-02-26T12:40:20;5.95;;;3.00;;
39454;SDS011;25155;41.890;23.446;2024-02-26T12:42:48;5.00;;;3.20;;
39454;SDS011;25155;41.890;23.446;2024-02-26T12:45:15;7.82;;;3.10;;
39454;SDS011;25155;41.890;23.446;2024-02-26T12:47:43;7.63;;;3.45;;
39454;SDS011;25155;41.890;23.446;2024-02-26T12:50:13;5.85;;;2.75;;
39454;SDS011;25155;41.890;23.446;2024-02-26T12:52:43;6.30;;;3.40;;
39454;SDS011;25155;41.890;23.446;2024-02-26T12:55:11;8.20;;;3.67;;
39454;SDS011;25155;41.890;23.446;2024-02-26T12:57:41;5.95;;;3.13;;
39454;SDS011;25155;41.890;23.446;2024-02-26T13:00:11;6.15;;;3.53;;
39454;SDS011;25155;41.890;23.446;2024-02-26T13:02:40;8.05;;;3.10;;
39454;SDS011;25155;41.890;23.446;2024-02-26T13:05:10;6.13;;;3.45;;
39454;SDS011;25155;41.890;23.446;2024-02-26T13:07:42;5.93;;;3.08;;
39454;SDS011;25155;41.890;23.446;2024-02-26T13:10:09;6.97;;;3.50;;
39454;SDS011;25155;41.890;23.446;2024-02-26T13:12:42;7.07;;;3.30;;
39454;SDS011;25155;41.890;23.446;2024-02-26T13:15:14;8.57;;;3.58;;
39454;SDS011;25155;41.890;23.446;2024-02-26T13:17:42;7.00;;;3.95;;
39454;SDS011;25155;41.890;23.446;2024-02-26T13:20:10;6.80;;;3.85;;
39454;SDS011;25155;41.890;23.446;2024-02-26T13:22:37;5.47;;;3.15;;
39454;SDS011;25155;41.890;23.446;2024-02-26T13:25:07;5.45;;;2.80;;
39454;SDS011;25155;41.890;23.446;2024-02-26T13:27:34;7.13;;;3.70;;
39454;SDS011;25155;41.890;23.446;2024-02-26T13:30:02;8.65;;;4.82;;
39454;SDS011;25155;41.890;23.446;2024-02-26T13:32:32;10.07;;;4.80;;
39454;SDS011;25155;41.890;23.446;2024-02-26T13:35:04;7.47;;;3.60;;
39454;SDS011;25155;41.890;23.446;2024-02-26T13:37:32;7.45;;;4.15;;
39454;SDS011;25155;41.890;23.446;2024-02-26T13:39:59;8.27;;;4.07;;
39454;SDS011;25155;41.890;23.446;2024-02-26T13:42:31;5.32;;;3.17;;
39454;SDS011;25155;41.890;23.446;2024-02-26T13:44:58;9.18;;;4.25;;
39454;SDS011;25155;41.890;23.446;2024-02-26T13:47:25;8.45;;;4.82;;
39454;SDS011;25155;41.890;23.446;2024-02-26T13:49:52;7.97;;;3.90;;
39454;SDS011;25155;41.890;23.446;2024-02-26T13:52:19;8.75;;;4.47;;
39454;SDS011;25155;41.890;23.446;2024-02-26T13:54:46;6.28;;;3.75;;
39454;SDS011;25155;41.890;23.446;2024-02-26T13:57:14;12.07;;;4.10;;
39454;SDS011;25155;41.890;23.446;2024-02-26T13:59:43;8.88;;;3.60;;
39454;SDS011;25155;41.890;23.446;2024-02-26T14:02:10;11.27;;;4.28;;
39454;SDS011;25155;41.890;23.446;2024-02-26T14:04:38;8.55;;;4.20;;
39454;SDS011;25155;41.890;23.446;2024-02-26T14:07:05;6.93;;;3.67;;
39454;SDS011;25155;41.890;23.446;2024-02-26T14:09:33;10.98;;;5.78;;
39454;SDS011;25155;41.890;23.446;2024-02-26T14:12:00;29.85;;;9.55;;
39454;SDS011;25155;41.890;23.446;2024-02-26T14:14:27;21.95;;;11.27;;
39454;SDS011;25155;41.890;23.446;2024-02-26T14:16:59;9.52;;;5.20;;
39454;SDS011;25155;41.890;23.446;2024-02-26T14:19:26;8.82;;;5.22;;
39454;SDS011;25155;41.890;23.446;2024-02-26T14:21:54;9.27;;;5.72;;
39454;SDS011;25155;41.890;23.446;2024-02-26T14:24:21;8.23;;;4.05;;
39454;SDS011;25155;41.890;23.446;2024-02-26T14:26:48;10.93;;;5.72;;
39454;SDS011;25155;41.890;23.446;2024-02-26T14:29:15;7.60;;;4.45;;
39454;SDS011;25155;41.890;23.446;2024-02-26T14:31:42;7.60;;;4.00;;
39454;SDS011;25155;41.890;23.446;2024-02-26T14:34:11;7.65;;;4.00;;
39454;SDS011;25155;41.890;23.446;2024-02-26T14:36:38;6.93;;;4.03;;
39454;SDS011;25155;41.890;23.446;2024-02-26T14:39:05;5.45;;;3.25;;
39454;SDS011;25155;41.890;23.446;2024-02-26T14:41:32;7.28;;;3.47;;